Daytona Beach, Florida
Current Conditions -  °F | °C
As of 10:53 AM on Wednesday 22 Oct 2014 (Local Time) from KDAB Reporting Station
Few Clouds Few Clouds  
Wind Chill: 77°   Ceiling: Unl
Heat Index: 79°   Visibility: 10mi
Dew Point: 64°   Wind: 7mph
Humidity: 64%   Direction: 340°NNW
Pressure: 30.01"   Gusts: NA
Location:  29.2°N, 81.04°W
Report Text: KDAB 221453Z 34006KT 10SM FEW250 25/18 A3001 RMK AO2 SLP161 T02500178 51012
Loading
Personal Weather Stations






























Interactive Weather Map
Tropical Storm Tracking
New forecast layout! Learn more

10-Day Weather Forecast

Advertisements
Track Severe Weather on mobile